Time;durP1;ratioP1;P1;durP2;ratioP2;P2;SDS_P1;SDS_P2;PMS_P1;PMS_P2;Temp;Humidity;BMP_temperature;BMP_pressure;BME280_temperature;BME280_humidity;BME280_pressure;Samples;Min_cycle;Max_cycle;Signal;HPM_P1;HPM_P2
2021/07/24 00:01:03;;;;;;;17.90;14.57;;;18.90;91.90;;;;;;5091245;28;20478;-70
2021/07/24 00:03:32;;;;;;;15.63;13.60;;;18.90;92.00;;;;;;5091247;28;20439;-67
2021/07/24 00:05:59;;;;;;;18.37;12.50;;;18.90;91.90;;;;;;5090851;28;20493;-68
2021/07/24 00:08:26;;;;;;;20.80;13.50;;;18.90;91.90;;;;;;5091331;28;20479;-68
2021/07/24 00:10:54;;;;;;;16.27;14.10;;;18.90;92.00;;;;;;5090684;28;20578;-69
2021/07/24 00:13:21;;;;;;;17.77;13.70;;;18.90;91.80;;;;;;5090212;28;21073;-68
2021/07/24 00:15:48;;;;;;;14.50;12.43;;;18.80;91.90;;;;;;5090676;28;20447;-67
2021/07/24 00:18:15;;;;;;;18.77;14.50;;;18.80;92.10;;;;;;5090698;28;20443;-69
2021/07/24 00:20:43;;;;;;;18.60;14.20;;;18.70;92.40;;;;;;5091317;28;20439;-67
2021/07/24 00:23:12;;;;;;;18.90;13.73;;;18.70;92.70;;;;;;5091656;28;21196;-67
2021/07/24 00:25:40;;;;;;;20.70;14.47;;;18.60;93.00;;;;;;5091454;28;20431;-68
2021/07/24 00:28:08;;;;;;;21.77;16.60;;;18.60;93.10;;;;;;5092189;28;20985;-69
2021/07/24 00:30:37;;;;;;;19.70;13.20;;;18.60;93.00;;;;;;5091719;28;20443;-67
2021/07/24 00:33:04;;;;;;;20.17;14.90;;;18.50;93.20;;;;;;5091866;28;21007;-68
2021/07/24 00:35:31;;;;;;;17.00;12.43;;;18.60;93.10;;;;;;5092050;28;20801;-67
2021/07/24 00:38:00;;;;;;;18.37;14.47;;;18.60;93.20;;;;;;5092859;28;20439;-67
2021/07/24 00:40:30;;;;;;;26.00;17.40;;;18.50;93.10;;;;;;5092565;28;20526;-67
2021/07/24 00:42:59;;;;;;;24.53;14.27;;;18.50;93.20;;;;;;5093108;28;20445;-67
2021/07/24 00:45:29;;;;;;;17.27;14.27;;;18.50;93.10;;;;;;5092262;28;20579;-67
2021/07/24 00:47:58;;;;;;;17.93;13.70;;;18.40;93.00;;;;;;5092835;28;20443;-67
2021/07/24 00:50:26;;;;;;;17.57;13.30;;;18.40;93.10;;;;;;5092513;28;20454;-67
2021/07/24 00:52:59;;;;;;;19.50;13.63;;;18.30;93.30;;;;;;5092492;28;20605;-69
2021/07/24 00:55:29;;;;;;;15.93;12.67;;;18.30;93.60;;;;;;5092228;28;20438;-69
2021/07/24 00:57:56;;;;;;;17.47;13.60;;;18.30;93.60;;;;;;5092930;28;20439;-69
2021/07/24 01:00:23;;;;;;;17.60;13.43;;;18.30;93.60;;;;;;5092196;28;20467;-68
2021/07/24 01:02:50;;;;;;;19.00;14.50;;;18.40;93.60;;;;;;5092348;28;20455;-69
2021/07/24 01:05:17;;;;;;;17.60;13.50;;;18.40;93.50;;;;;;5092583;28;20443;-70
2021/07/24 01:07:44;;;;;;;16.60;12.90;;;18.40;93.20;;;;;;5092688;28;20439;-69
2021/07/24 01:10:12;;;;;;;22.80;13.77;;;18.40;93.00;;;;;;5092466;28;20429;-69
2021/07/24 01:12:40;;;;;;;18.10;13.63;;;18.40;92.80;;;;;;5092593;28;20826;-69
2021/07/24 01:15:08;;;;;;;15.73;11.60;;;18.40;92.80;;;;;;5092508;28;20948;-70
2021/07/24 01:17:35;;;;;;;16.60;12.30;;;18.40;92.80;;;;;;5092420;28;20453;-69
2021/07/24 01:20:04;;;;;;;17.90;12.33;;;18.40;92.80;;;;;;5092235;28;20443;-70
2021/07/24 01:22:33;;;;;;;15.10;12.07;;;18.40;93.00;;;;;;5092549;28;20439;-75
2021/07/24 01:25:00;;;;;;;17.03;12.93;;;18.30;93.10;;;;;;5096016;28;20446;-69
2021/07/24 01:27:29;;;;;;;16.83;13.30;;;18.30;93.30;;;;;;5096635;28;20466;-69
2021/07/24 01:29:56;;;;;;;17.33;13.30;;;18.30;93.40;;;;;;5096081;28;20530;-69
2021/07/24 01:32:24;;;;;;;18.07;12.87;;;18.40;93.40;;;;;;5096196;28;20501;-69
2021/07/24 01:34:51;;;;;;;19.53;15.43;;;18.40;93.30;;;;;;5096328;28;20458;-69
2021/07/24 01:37:18;;;;;;;16.67;11.90;;;18.40;93.20;;;;;;5095878;28;20438;-69
2021/07/24 01:39:46;;;;;;;18.43;13.50;;;18.40;93.60;;;;;;5096130;28;20443;-69
2021/07/24 01:42:13;;;;;;;15.47;13.23;;;18.30;93.30;;;;;;5096376;28;20762;-67
2021/07/24 01:44:40;;;;;;;17.13;13.00;;;18.30;93.00;;;;;;5095740;28;20956;-67
2021/07/24 01:47:07;;;;;;;18.63;12.23;;;18.30;92.90;;;;;;5095673;28;20431;-70
2021/07/24 01:55:14;;;;;;;20.63;12.27;;;18.20;93.30;;;;;;5095757;28;20434;-68
2021/07/24 01:57:44;;;;;;;16.97;13.53;;;18.20;93.40;;;;;;5095858;28;20442;-67
2021/07/24 02:00:12;;;;;;;13.47;10.87;;;18.20;93.50;;;;;;5095795;28;20470;-67
2021/07/24 02:02:42;;;;;;;17.27;13.23;;;18.20;93.50;;;;;;5096081;28;20435;-67
2021/07/24 02:05:15;;;;;;;16.50;12.20;;;18.20;93.10;;;;;;5095139;28;20450;-67
2021/07/24 02:07:45;;;;;;;16.00;12.93;;;18.10;93.20;;;;;;5095971;28;20529;-69
2021/07/24 02:10:14;;;;;;;22.37;13.50;;;18.10;93.10;;;;;;5095342;28;20434;-69
2021/07/24 02:12:41;;;;;;;17.10;11.43;;;18.10;92.90;;;;;;5094717;28;20595;-67
2021/07/24 02:15:09;;;;;;;15.50;10.93;;;18.10;93.10;;;;;;5095704;28;20446;-67
2021/07/24 02:17:38;;;;;;;15.10;11.83;;;18.10;93.10;;;;;;5095355;28;20443;-67
2021/07/24 02:20:10;;;;;;;17.30;15.20;;;18.10;93.10;;;;;;5095790;28;20524;-67
2021/07/24 02:22:38;;;;;;;17.93;13.07;;;18.10;93.10;;;;;;5095192;28;20435;-67
2021/07/24 02:25:06;;;;;;;19.40;11.53;;;18.10;93.20;;;;;;5095551;28;20447;-67
2021/07/24 02:27:35;;;;;;;15.23;10.97;;;18.10;93.40;;;;;;5095035;28;20428;-67
2021/07/24 02:30:03;;;;;;;17.40;11.30;;;18.10;93.40;;;;;;5095031;28;20443;-68
2021/07/24 02:32:30;;;;;;;17.43;11.83;;;18.10;93.40;;;;;;5095066;28;20489;-67
2021/07/24 02:34:57;;;;;;;18.80;12.53;;;18.10;93.00;;;;;;5094491;28;20450;-67
2021/07/24 02:37:24;;;;;;;17.53;11.90;;;18.00;92.90;;;;;;5094906;28;20819;-69
2021/07/24 02:39:51;;;;;;;16.67;11.87;;;17.90;92.90;;;;;;5095180;28;20436;-67
2021/07/24 02:42:18;;;;;;;13.70;11.07;;;17.90;93.20;;;;;;5095223;28;20445;-66
2021/07/24 02:44:47;;;;;;;17.13;11.97;;;17.90;93.10;;;;;;5093867;28;20835;-67
2021/07/24 02:47:15;;;;;;;16.10;12.10;;;17.90;93.00;;;;;;5095024;28;20463;-67
2021/07/24 02:49:42;;;;;;;16.17;12.07;;;17.90;93.20;;;;;;5094856;28;20527;-67
2021/07/24 02:52:09;;;;;;;17.30;12.57;;;17.80;93.00;;;;;;5094390;28;20837;-67
2021/07/24 02:54:37;;;;;;;22.73;14.13;;;17.80;93.20;;;;;;5095163;28;20522;-69
2021/07/24 02:57:05;;;;;;;17.97;13.73;;;17.80;93.30;;;;;;5094288;28;20459;-69
2021/07/24 02:59:32;;;;;;;16.30;12.23;;;17.70;93.60;;;;;;5094652;28;20431;-69
2021/07/24 03:02:01;;;;;;;18.00;12.90;;;17.70;93.60;;;;;;5094471;28;20804;-69
2021/07/24 03:04:28;;;;;;;16.50;13.60;;;17.70;93.70;;;;;;5094892;28;20441;-69
2021/07/24 03:06:55;;;;;;;16.53;11.90;;;17.70;93.70;;;;;;5094258;28;20435;-69
2021/07/24 03:09:22;;;;;;;16.03;11.40;;;17.70;93.60;;;;;;5094136;28;20443;-69
2021/07/24 03:11:49;;;;;;;15.83;12.37;;;17.70;93.60;;;;;;5094569;28;20435;-69
2021/07/24 03:14:16;;;;;;;18.27;13.77;;;17.70;93.60;;;;;;5094057;28;20482;-69
2021/07/24 03:16:43;;;;;;;15.67;12.80;;;17.60;93.70;;;;;;5094471;28;20439;-69
2021/07/24 03:19:12;;;;;;;16.10;11.50;;;17.60;93.80;;;;;;5094020;28;20439;-69
2021/07/24 03:21:40;;;;;;;15.70;11.17;;;17.60;93.90;;;;;;5094146;28;20488;-68
2021/07/24 03:24:08;;;;;;;14.77;12.30;;;17.60;93.80;;;;;;5093873;28;20782;-68
2021/07/24 03:26:36;;;;;;;17.60;11.57;;;17.60;93.80;;;;;;5094527;28;20431;-69
2021/07/24 03:29:03;;;;;;;17.80;12.00;;;17.60;93.80;;;;;;5093982;28;20553;-69
2021/07/24 03:31:30;;;;;;;15.20;12.13;;;17.60;93.80;;;;;;5094257;28;20439;-71
2021/07/24 03:33:57;;;;;;;15.03;11.83;;;17.60;93.90;;;;;;5093782;28;20559;-69
2021/07/24 03:36:26;;;;;;;15.87;12.57;;;17.70;93.90;;;;;;5094125;28;20492;-69
2021/07/24 03:38:53;;;;;;;14.00;11.80;;;17.70;93.80;;;;;;5093762;28;20492;-69
2021/07/24 03:41:20;;;;;;;18.57;11.63;;;17.70;93.50;;;;;;5094019;28;20980;-68
2021/07/24 03:43:47;;;;;;;15.30;12.60;;;17.60;93.40;;;;;;5093412;28;20435;-70
2021/07/24 03:46:16;;;;;;;15.97;11.70;;;17.50;93.20;;;;;;5093710;28;20427;-67
2021/07/24 03:48:43;;;;;;;15.90;11.63;;;17.40;93.20;;;;;;5093969;28;20435;-69
2021/07/24 03:51:11;;;;;;;16.80;13.60;;;17.30;93.60;;;;;;5093567;28;20431;-69
2021/07/24 03:53:41;;;;;;;15.87;13.67;;;17.30;93.90;;;;;;5093637;28;21006;-69
2021/07/24 03:56:15;;;;;;;16.90;13.50;;;17.30;93.90;;;;;;5093338;28;20451;-69
2021/07/24 03:58:42;;;;;;;15.40;11.57;;;17.30;94.00;;;;;;5093396;28;20430;-69
2021/07/24 04:01:09;;;;;;;16.07;10.97;;;17.40;94.20;;;;;;5093143;28;20520;-69
2021/07/24 04:03:37;;;;;;;21.80;13.47;;;17.40;94.20;;;;;;5093064;28;20869;-69
2021/07/24 04:06:04;;;;;;;15.20;12.03;;;17.40;94.60;;;;;;5093641;28;20442;-69
2021/07/24 04:08:32;;;;;;;16.67;12.23;;;17.40;94.40;;;;;;5093161;28;20492;-69
2021/07/24 04:11:01;;;;;;;15.90;12.83;;;17.40;94.60;;;;;;5093137;28;20478;-69
2021/07/24 04:13:28;;;;;;;17.57;12.83;;;17.40;95.10;;;;;;5093144;28;20533;-69
2021/07/24 04:15:56;;;;;;;15.73;12.97;;;17.40;94.70;;;;;;5093609;28;20442;-69
2021/07/24 04:18:25;;;;;;;19.10;14.07;;;17.40;94.70;;;;;;5092821;28;20439;-69
2021/07/24 04:20:53;;;;;;;14.87;11.90;;;17.30;94.90;;;;;;5093317;28;20485;-70
2021/07/24 04:23:20;;;;;;;15.60;11.53;;;17.40;95.10;;;;;;5092984;28;20466;-69
2021/07/24 04:25:49;;;;;;;15.40;11.20;;;17.50;95.10;;;;;;5093371;28;20461;-69
2021/07/24 04:28:17;;;;;;;14.70;12.70;;;17.50;95.20;;;;;;5092662;28;20439;-69
2021/07/24 04:30:47;;;;;;;14.87;10.90;;;17.60;95.10;;;;;;5093225;28;20447;-68
2021/07/24 04:33:14;;;;;;;16.20;12.03;;;17.60;95.00;;;;;;5092671;28;20475;-69
2021/07/24 04:35:46;;;;;;;15.17;11.93;;;17.70;95.00;;;;;;5092527;28;20439;-69
2021/07/24 04:38:13;;;;;;;15.80;11.90;;;17.70;95.00;;;;;;5092798;28;20917;-69
2021/07/24 04:40:40;;;;;;;19.00;12.13;;;17.70;94.90;;;;;;5093081;28;20445;-69
2021/07/24 04:43:07;;;;;;;15.83;11.47;;;17.80;95.00;;;;;;5092400;28;20439;-69
2021/07/24 04:45:36;;;;;;;18.43;12.63;;;17.80;95.10;;;;;;5092754;28;20805;-71
2021/07/24 04:48:03;;;;;;;18.80;12.10;;;17.90;95.00;;;;;;5072833;28;20432;-67
2021/07/24 04:50:30;;;;;;;18.07;13.60;;;17.90;94.90;;;;;;5072624;28;20434;-67
2021/07/24 04:52:58;;;;;;;16.50;12.40;;;18.00;95.20;;;;;;5091892;28;20924;-69
2021/07/24 04:55:25;;;;;;;17.03;13.80;;;18.10;95.30;;;;;;5092908;28;20845;-69
2021/07/24 04:57:52;;;;;;;17.93;13.00;;;18.20;95.40;;;;;;5091599;28;20928;-68
2021/07/24 05:00:20;;;;;;;16.97;12.50;;;18.30;95.40;;;;;;5092622;28;20887;-69
2021/07/24 05:02:49;;;;;;;17.17;11.57;;;18.40;95.20;;;;;;5092289;28;20435;-69
2021/07/24 05:05:16;;;;;;;20.23;13.40;;;18.50;94.70;;;;;;5092956;28;20793;-69
2021/07/24 05:07:43;;;;;;;17.67;13.70;;;18.60;94.50;;;;;;5092208;28;20443;-69
2021/07/24 05:10:11;;;;;;;20.10;13.60;;;18.70;94.00;;;;;;5092269;28;20518;-69
2021/07/24 05:12:40;;;;;;;18.47;13.10;;;18.70;94.10;;;;;;5092493;28;20785;-70
2021/07/24 05:15:08;;;;;;;17.20;13.40;;;18.80;94.00;;;;;;5091919;28;20439;-69
2021/07/24 05:17:41;;;;;;;17.93;12.20;;;18.90;94.00;;;;;;5092784;28;20453;-69
2021/07/24 05:20:11;;;;;;;17.23;12.63;;;19.00;93.90;;;;;;5092405;28;20430;-69
2021/07/24 05:22:38;;;;;;;24.60;12.83;;;19.20;93.80;;;;;;5092044;28;20556;-70
2021/07/24 05:25:06;;;;;;;15.13;12.40;;;19.30;93.70;;;;;;5092334;28;20435;-69
2021/07/24 05:27:33;;;;;;;16.80;11.57;;;19.50;93.60;;;;;;5092450;28;20435;-69
2021/07/24 05:30:00;;;;;;;22.13;13.30;;;19.70;93.40;;;;;;5091854;28;20462;-69
2021/07/24 05:32:28;;;;;;;19.10;13.67;;;19.90;93.40;;;;;;5092635;28;20439;-69
2021/07/24 05:34:54;;;;;;;16.53;12.50;;;20.00;92.80;;;;;;5092176;28;20518;-69
2021/07/24 05:37:23;;;;;;;16.90;11.90;;;20.20;92.70;;;;;;5092356;28;20438;-69
2021/07/24 05:39:50;;;;;;;16.00;12.20;;;20.30;93.00;;;;;;5091798;28;20434;-70
2021/07/24 05:42:17;;;;;;;20.57;12.50;;;20.30;92.00;;;;;;5092437;28;20431;-69
2021/07/24 05:44:44;;;;;;;17.80;12.80;;;20.40;92.00;;;;;;5091939;28;20439;-70
2021/07/24 05:47:11;;;;;;;16.27;11.80;;;20.50;92.10;;;;;;5092325;28;20434;-70
2021/07/24 05:49:39;;;;;;;16.30;12.53;;;20.70;92.00;;;;;;5092173;28;20797;-69
2021/07/24 05:52:08;;;;;;;15.23;12.87;;;20.70;92.00;;;;;;5092375;28;20443;-69
2021/07/24 05:54:38;;;;;;;19.60;13.47;;;20.80;92.10;;;;;;5091712;28;21053;-69
2021/07/24 05:57:06;;;;;;;22.10;14.00;;;20.80;91.70;;;;;;5092014;28;20441;-67
2021/07/24 05:59:36;;;;;;;15.80;13.80;;;20.80;91.80;;;;;;5091738;28;20521;-68
2021/07/24 06:02:05;;;;;;;16.10;13.13;;;20.90;92.00;;;;;;5092383;28;20832;-69
2021/07/24 06:04:33;;;;;;;17.63;12.90;;;21.00;92.00;;;;;;5092386;28;20454;-67
2021/07/24 06:07:00;;;;;;;16.77;11.83;;;21.00;91.50;;;;;;5092128;28;20893;-67
2021/07/24 06:09:27;;;;;;;19.80;12.90;;;21.10;91.60;;;;;;5091857;28;20478;-67
2021/07/24 06:11:56;;;;;;;15.83;11.37;;;21.10;91.80;;;;;;5095706;28;20484;-70
2021/07/24 06:14:23;;;;;;;17.97;12.13;;;21.20;92.10;;;;;;5093325;28;20521;-67
2021/07/24 06:16:51;;;;;;;15.83;13.47;;;21.20;92.00;;;;;;5085239;28;20442;-69
2021/07/24 06:19:19;;;;;;;17.23;12.53;;;21.20;92.10;;;;;;5080654;28;20427;-67
2021/07/24 06:21:48;;;;;;;15.70;12.40;;;21.20;91.90;;;;;;5077848;28;20534;-69
2021/07/24 06:24:17;;;;;;;17.63;12.37;;;21.20;91.70;;;;;;5078431;28;20431;-70
2021/07/24 06:26:45;;;;;;;14.23;11.00;;;21.30;91.80;;;;;;5077213;28;20959;-69
2021/07/24 06:29:15;;;;;;;15.50;12.60;;;21.30;91.90;;;;;;5078071;28;20466;-68
2021/07/24 06:31:43;;;;;;;17.37;13.40;;;21.40;92.10;;;;;;5077367;28;20446;-68
2021/07/24 06:34:10;;;;;;;16.93;12.10;;;21.50;92.10;;;;;;5077987;28;20490;-68
2021/07/24 06:36:39;;;;;;;21.00;12.97;;;21.50;91.60;;;;;;5076026;28;21058;-69
2021/07/24 06:39:08;;;;;;;17.47;12.07;;;21.60;90.90;;;;;;5077851;28;20458;-69
2021/07/24 06:41:36;;;;;;;18.43;12.60;;;21.70;91.30;;;;;;5077637;28;21004;-69
2021/07/24 06:44:04;;;;;;;14.70;11.60;;;21.80;91.30;;;;;;5077553;28;20439;-68
2021/07/24 06:46:34;;;;;;;17.23;13.00;;;22.00;91.40;;;;;;5077191;28;20443;-68
2021/07/24 06:49:03;;;;;;;18.80;13.00;;;22.20;91.30;;;;;;5077514;28;20439;-68
2021/07/24 06:51:31;;;;;;;14.97;12.43;;;22.30;91.20;;;;;;5077362;28;20435;-68
2021/07/24 06:53:58;;;;;;;17.20;12.90;;;22.40;90.40;;;;;;5077162;28;20495;-69
2021/07/24 06:56:26;;;;;;;18.57;12.60;;;22.40;90.20;;;;;;5075829;28;20482;-69
2021/07/24 06:58:54;;;;;;;16.70;11.50;;;22.50;89.80;;;;;;5077548;28;20508;-68
2021/07/24 07:01:23;;;;;;;16.50;12.83;;;22.50;89.10;;;;;;5077059;28;20576;-67
2021/07/24 07:03:53;;;;;;;16.57;12.30;;;22.50;88.60;;;;;;5077603;28;20450;-68
2021/07/24 07:06:21;;;;;;;16.53;11.27;;;22.50;89.60;;;;;;5076214;28;20857;-70
2021/07/24 07:08:49;;;;;;;15.10;12.17;;;22.40;87.90;;;;;;5077061;28;21058;-70
2021/07/24 07:11:17;;;;;;;17.80;12.87;;;22.40;88.80;;;;;;5073923;28;20509;-67
2021/07/24 07:13:46;;;;;;;15.57;11.73;;;22.30;89.50;;;;;;5075813;28;20497;-68
2021/07/24 07:16:13;;;;;;;15.30;12.00;;;22.10;89.80;;;;;;5074926;28;20443;-68
2021/07/24 07:18:42;;;;;;;16.60;11.23;;;22.10;90.20;;;;;;5075802;28;20796;-67
2021/07/24 07:21:11;;;;;;;18.43;12.60;;;22.00;90.70;;;;;;5075322;28;20439;-67
2021/07/24 07:23:39;;;;;;;18.90;13.50;;;21.90;90.50;;;;;;5075205;28;20443;-68
2021/07/24 07:26:08;;;;;;;20.50;12.53;;;21.90;89.50;;;;;;5074749;28;21685;-67
2021/07/24 07:28:37;;;;;;;15.97;11.97;;;21.80;89.50;;;;;;5075812;28;20953;-68
2021/07/24 07:31:05;;;;;;;17.90;12.40;;;21.70;89.40;;;;;;5075501;28;20443;-69
2021/07/24 07:33:34;;;;;;;15.30;11.70;;;21.60;89.20;;;;;;5075754;28;20439;-69
2021/07/24 07:36:04;;;;;;;14.07;11.20;;;21.50;90.00;;;;;;5074602;28;20439;-69
2021/07/24 07:38:35;;;;;;;16.93;12.17;;;21.50;90.40;;;;;;5074968;28;20458;-68
2021/07/24 07:41:02;;;;;;;18.07;14.50;;;21.50;90.60;;;;;;5075244;28;20463;-69
2021/07/24 07:43:30;;;;;;;15.77;12.37;;;21.50;90.80;;;;;;5074980;28;20543;-68
2021/07/24 07:45:59;;;;;;;13.37;9.90;;;21.50;90.60;;;;;;5074059;28;20493;-68
2021/07/24 07:48:26;;;;;;;16.93;11.03;;;21.30;90.30;;;;;;5074103;28;20443;-68
2021/07/24 07:50:53;;;;;;;15.70;10.00;;;21.20;90.20;;;;;;5075194;28;20552;-70
2021/07/24 07:53:20;;;;;;;16.30;11.43;;;21.10;90.90;;;;;;5075271;28;20774;-71
2021/07/24 07:55:48;;;;;;;20.27;16.33;;;21.10;91.30;;;;;;5073449;28;20612;-70
2021/07/24 07:58:15;;;;;;;15.67;11.93;;;21.10;91.80;;;;;;5074979;28;20554;-72
2021/07/24 08:00:42;;;;;;;14.87;10.33;;;21.10;92.20;;;;;;5074795;28;20467;-72
2021/07/24 08:03:09;;;;;;;17.83;11.83;;;21.00;92.50;;;;;;5074673;28;20538;-70
2021/07/24 08:05:36;;;;;;;16.73;10.77;;;20.90;92.70;;;;;;5074126;28;20439;-70
2021/07/24 08:08:03;;;;;;;17.17;11.93;;;20.90;93.10;;;;;;5071051;28;20558;-70
2021/07/24 08:10:30;;;;;;;14.30;10.87;;;20.90;93.40;;;;;;5072993;28;20512;-68
2021/07/24 08:12:58;;;;;;;16.83;11.00;;;20.80;93.30;;;;;;5072129;28;20553;-69
2021/07/24 08:15:25;;;;;;;15.17;10.60;;;20.80;93.50;;;;;;5071728;28;20627;-69
2021/07/24 08:17:54;;;;;;;15.73;11.10;;;20.90;93.60;;;;;;5072453;28;20533;-68
2021/07/24 08:20:21;;;;;;;14.90;10.67;;;20.90;93.80;;;;;;5071971;28;21439;-68
2021/07/24 08:22:48;;;;;;;16.00;11.17;;;21.10;94.00;;;;;;5072273;28;22412;-70
2021/07/24 08:25:15;;;;;;;14.77;11.40;;;21.10;94.30;;;;;;5068423;28;20592;-70
2021/07/24 08:27:41;;;;;;;16.80;12.47;;;21.10;95.00;;;;;;5071534;28;20584;-70
2021/07/24 08:30:11;;;;;;;16.47;11.60;;;21.00;95.00;;;;;;5072454;28;20868;-70
2021/07/24 08:32:38;;;;;;;19.50;11.90;;;21.10;95.10;;;;;;5071668;28;20550;-73
2021/07/24 08:35:06;;;;;;;14.30;10.83;;;21.10;94.60;;;;;;5071991;28;21047;-73
2021/07/24 08:37:33;;;;;;;16.23;11.33;;;21.30;94.60;;;;;;5071546;28;21696;-71
2021/07/24 08:40:00;;;;;;;18.33;12.27;;;21.40;94.40;;;;;;5072990;28;20478;-70
2021/07/24 08:42:29;;;;;;;17.10;11.63;;;21.60;94.90;;;;;;5072074;28;21268;-70
2021/07/24 08:44:56;;;;;;;17.13;10.93;;;21.90;94.70;;;;;;5072346;28;20482;-70
2021/07/24 08:47:25;;;;;;;16.03;10.33;;;22.10;94.50;;;;;;5070939;28;21653;-70
2021/07/24 08:49:52;;;;;;;21.40;10.97;;;22.40;94.30;;;;;;5071481;28;20660;-70
2021/07/24 08:52:20;;;;;;;12.73;11.00;;;22.60;94.50;;;;;;5071671;28;20519;-70
2021/07/24 08:54:47;;;;;;;18.27;11.17;;;22.90;94.40;;;;;;5069722;28;20579;-68
2021/07/24 08:57:18;;;;;;;16.53;10.77;;;23.20;92.80;;;;;;5070249;28;20443;-71
2021/07/24 08:59:46;;;;;;;17.33;11.80;;;23.50;92.90;;;;;;5071420;28;20471;-69
2021/07/24 09:02:14;;;;;;;15.60;11.47;;;23.60;90.10;;;;;;5071806;28;20431;-70
2021/07/24 09:04:48;;;;;;;14.00;10.40;;;23.70;90.80;;;;;;5071587;28;20436;-72
2021/07/24 09:07:16;;;;;;;13.30;10.27;;;23.90;90.50;;;;;;5070598;28;20447;-72
2021/07/24 09:09:44;;;;;;;13.00;10.50;;;24.00;89.80;;;;;;5072008;28;20810;-69
2021/07/24 09:12:11;;;;;;;16.13;10.87;;;24.00;87.50;;;;;;5072271;28;20579;-68
2021/07/24 09:14:39;;;;;;;12.77;10.97;;;24.10;89.40;;;;;;5071990;28;20602;-70
2021/07/24 09:17:08;;;;;;;20.77;11.70;;;24.50;89.80;;;;;;5070021;28;20633;-70
2021/07/24 09:19:37;;;;;;;13.00;10.90;;;24.70;88.20;;;;;;5071694;28;20932;-68
2021/07/24 09:22:25;;;;;;;13.50;10.40;;;24.90;88.20;;;;;;5071912;28;20536;-69
2021/07/24 09:25:12;;;;;;;15.23;9.60;;;25.20;86.50;;;;;;5070949;28;20562;-69
2021/07/24 09:27:40;;;;;;;12.00;9.07;;;25.30;86.90;;;;;;5071141;28;20898;-69
2021/07/24 09:30:10;;;;;;;13.53;9.70;;;25.40;86.60;;;;;;5071613;28;20957;-69
2021/07/24 09:32:38;;;;;;;12.10;10.87;;;25.70;86.20;;;;;;5071349;28;20449;-69
2021/07/24 09:35:10;;;;;;;16.87;10.20;;;25.80;81.60;;;;;;5070585;28;20587;-74
2021/07/24 09:37:42;;;;;;;11.13;9.20;;;25.90;81.50;;;;;;5063998;28;20443;-70
2021/07/24 09:40:23;;;;;;;14.27;10.00;;;25.80;79.80;;;;;;5069997;28;20454;-69
2021/07/24 09:42:50;;;;;;;12.90;10.00;;;25.80;81.10;;;;;;5070382;28;20447;-69
2021/07/24 09:45:17;;;;;;;12.97;10.20;;;25.90;81.70;;;;;;5071325;28;20802;-68
2021/07/24 09:47:44;;;;;;;13.27;10.70;;;26.20;82.20;;;;;;5074059;28;20557;-70
2021/07/24 09:50:16;;;;;;;14.50;10.17;;;26.50;83.70;;;;;;5070932;28;20539;-69
2021/07/24 09:52:50;;;;;;;10.80;9.50;;;26.90;83.60;;;;;;5073892;28;20446;-69
2021/07/24 09:55:19;;;;;;;12.57;10.47;;;27.30;83.30;;;;;;5072230;28;20577;-69
2021/07/24 09:57:46;;;;;;;17.03;10.40;;;27.70;81.80;;;;;;5072684;28;20573;-69
2021/07/24 10:00:24;;;;;;;9.97;8.73;;;28.00;80.20;;;;;;5073010;28;21044;-69
2021/07/24 10:03:02;;;;;;;11.70;8.57;;;28.20;77.90;;;;;;5073061;28;20764;-69
2021/07/24 10:05:37;;;;;;;16.30;9.70;;;28.30;77.30;;;;;;5072302;28;20585;-71
2021/07/24 10:08:11;;;;;;;13.53;9.63;;;28.50;75.80;;;;;;5074395;28;20467;-69
2021/07/24 10:10:44;;;;;;;10.33;8.70;;;28.70;74.70;;;;;;5074557;28;20451;-68
2021/07/24 10:13:13;;;;;;;11.90;9.03;;;28.80;73.30;;;;;;5073418;28;21604;-70
2021/07/24 10:15:41;;;;;;;10.27;9.07;;;29.00;71.30;;;;;;5064063;28;20548;-68
2021/07/24 10:18:10;;;;;;;11.10;9.37;;;29.10;70.70;;;;;;5085426;28;20446;-69
2021/07/24 10:20:38;;;;;;;10.43;8.60;;;29.20;70.30;;;;;;5061117;28;20538;-68
2021/07/24 10:23:08;;;;;;;10.00;9.00;;;29.20;69.80;;;;;;5040770;28;20963;-71
2021/07/24 10:25:46;;;;;;;12.47;10.07;;;29.40;68.90;;;;;;5053935;28;20467;-70
2021/07/24 10:28:38;;;;;;;9.53;7.80;;;29.40;70.50;;;;;;5039170;28;20652;-69
2021/07/24 10:31:10;;;;;;;14.20;9.63;;;29.50;69.10;;;;;;5043938;28;20433;-69
2021/07/24 10:33:37;;;;;;;10.00;9.00;;;29.60;66.20;;;;;;5048791;28;20521;-70
2021/07/24 10:36:12;;;;;;;11.30;9.80;;;29.70;66.70;;;;;;5044123;28;20581;-72
2021/07/24 10:38:57;;;;;;;11.20;8.20;;;29.70;64.90;;;;;;5049650;28;20546;-71
2021/07/24 10:41:51;;;;;;;13.40;9.70;;;29.80;63.80;;;;;;5044200;28;20458;-69
2021/07/24 10:44:38;;;;;;;10.33;8.43;;;29.90;63.70;;;;;;5033829;28;20471;-71
2021/07/24 10:47:19;;;;;;;11.67;10.17;;;29.90;63.90;;;;;;5032810;28;20960;-75
2021/07/24 10:50:12;;;;;;;17.07;10.93;;;30.10;63.90;;;;;;5039250;28;20467;-68
2021/07/24 10:53:06;;;;;;;13.33;11.23;;;30.20;65.60;;;;;;5036999;28;20473;-69
2021/07/24 10:55:40;;;;;;;10.87;9.47;;;30.30;66.70;;;;;;5029323;28;20484;-72
2021/07/24 10:58:08;;;;;;;13.23;11.10;;;30.50;63.90;;;;;;5055670;28;20480;-69
2021/07/24 11:00:50;;;;;;;12.00;9.60;;;30.50;64.40;;;;;;5022495;28;20468;-70
2021/07/24 11:03:40;;;;;;;11.63;9.67;;;30.60;64.00;;;;;;5043202;28;20525;-71
2021/07/24 11:06:26;;;;;;;13.80;10.57;;;30.80;62.30;;;;;;5043385;28;20480;-69
2021/07/24 11:09:15;;;;;;;13.53;10.53;;;30.90;62.10;;;;;;5043565;28;20943;-70
2021/07/24 11:11:47;;;;;;;14.50;10.63;;;30.80;59.60;;;;;;5047459;28;20486;-69
2021/07/24 11:14:58;;;;;;;12.87;10.57;;;30.70;61.20;;;;;;5044518;28;20469;-69
2021/07/24 11:17:26;;;;;;;18.00;10.37;;;30.60;60.60;;;;;;5024480;28;20561;-68
2021/07/24 11:20:33;;;;;;;14.67;10.40;;;30.40;60.30;;;;;;5044544;28;20518;-72
2021/07/24 11:23:10;;;;;;;12.50;10.10;;;30.20;60.50;;;;;;5034216;28;20515;-68
2021/07/24 11:25:40;;;;;;;12.53;10.00;;;30.10;60.90;;;;;;5038694;28;20486;-67
2021/07/24 11:28:10;;;;;;;14.13;10.13;;;30.00;60.40;;;;;;5052505;28;20437;-69
2021/07/24 11:30:37;;;;;;;11.40;10.17;;;29.90;61.30;;;;;;5040638;28;20468;-70
2021/07/24 11:33:05;;;;;;;14.53;10.73;;;29.90;61.40;;;;;;5055069;28;20484;-70
2021/07/24 11:35:39;;;;;;;11.93;10.33;;;30.10;62.40;;;;;;5037929;28;20463;-71
2021/07/24 11:38:24;;;;;;;13.00;9.87;;;30.30;62.70;;;;;;5054440;28;20827;-70
2021/07/24 11:41:11;;;;;;;10.50;9.40;;;30.70;61.70;;;;;;5040630;28;20466;-69
2021/07/24 11:43:40;;;;;;;12.20;9.90;;;30.90;60.40;;;;;;5050766;28;20871;-68
2021/07/24 11:46:10;;;;;;;12.80;10.30;;;31.00;60.80;;;;;;5041522;28;20508;-70
2021/07/24 11:48:40;;;;;;;11.47;10.30;;;31.20;59.70;;;;;;5049401;28;20518;-71
2021/07/24 11:51:09;;;;;;;13.10;10.40;;;31.20;58.90;;;;;;5039100;28;20518;-69
2021/07/24 11:53:37;;;;;;;12.23;10.17;;;31.30;57.60;;;;;;5048287;28;20457;-69
2021/07/24 11:56:10;;;;;;;10.03;9.00;;;31.30;57.60;;;;;;5029866;28;20488;-71
2021/07/24 11:58:40;;;;;;;11.37;9.70;;;31.30;57.40;;;;;;5052634;28;20726;-72
2021/07/24 12:01:21;;;;;;;10.40;8.40;;;31.20;57.30;;;;;;5040469;28;21833;-69
2021/07/24 12:03:48;;;;;;;13.27;9.80;;;31.20;57.20;;;;;;5049137;28;20441;-69
2021/07/24 12:06:15;;;;;;;11.50;8.80;;;31.20;57.40;;;;;;5041618;28;20806;-68
2021/07/24 12:08:47;;;;;;;11.23;9.23;;;30.90;57.20;;;;;;5044832;28;20475;-70
2021/07/24 12:11:16;;;;;;;11.37;9.23;;;30.80;57.90;;;;;;5034360;28;20494;-70
2021/07/24 12:13:46;;;;;;;11.33;10.10;;;30.80;57.70;;;;;;5047511;28;20530;-68
2021/07/24 12:16:14;;;;;;;11.40;9.80;;;30.80;58.10;;;;;;5039441;28;20520;-70
2021/07/24 12:18:44;;;;;;;11.23;8.13;;;30.80;58.30;;;;;;5042356;28;20553;-71
2021/07/24 12:21:17;;;;;;;11.40;8.20;;;30.80;57.80;;;;;;5037964;28;20444;-69
2021/07/24 12:23:57;;;;;;;9.60;8.70;;;30.80;57.20;;;;;;5051767;28;20484;-70
2021/07/24 12:26:28;;;;;;;9.00;8.10;;;30.80;58.10;;;;;;5040900;28;20444;-69
2021/07/24 12:28:57;;;;;;;13.13;8.80;;;30.90;57.20;;;;;;5048625;28;20452;-69
2021/07/24 12:31:26;;;;;;;13.30;9.70;;;30.90;57.50;;;;;;5039416;28;20530;-69
2021/07/24 12:33:55;;;;;;;11.97;8.60;;;30.90;57.00;;;;;;5055003;28;20854;-69
2021/07/24 12:36:23;;;;;;;10.20;8.53;;;31.00;58.20;;;;;;5039017;28;20471;-68
2021/07/24 12:38:52;;;;;;;10.17;8.80;;;31.00;58.10;;;;;;5053961;28;20452;-75
2021/07/24 12:41:31;;;;;;;12.10;7.77;;;31.10;57.10;;;;;;5038404;28;20456;-70
2021/07/24 12:44:04;;;;;;;11.60;8.50;;;31.10;56.40;;;;;;5052831;28;20459;-68
2021/07/24 12:46:32;;;;;;;12.90;8.50;;;31.10;56.10;;;;;;5031774;28;20444;-70